Weather observations for the past three days for
Gwinnett County Airport-Briscoe Field
| Date | Time (edt) | Wind (mph) | Vis. (mi.) | Weather | Sky Cond. | Temperature (ºF) | Relative Humidity | Wind Chill (°F) | Heat Index (°F) | Pressure | Precipitation (in) | ||||||
|---|---|---|---|---|---|---|---|---|---|---|---|---|---|---|---|---|---|
| Air | Dwpt | 6 hour | altimeter (in) | sea level (mb) | 1 hr | 3 hr | 6 hr | ||||||||||
| Max. | Min. | ||||||||||||||||
| 10 | 07:56 | W 7 | 1.75 | Fog/Mist | OVC002 | 61 | 61 | 63 | 57.9 | 100% | 30.03 | 1017.6 | |||||
| 10 | 03:56 | Calm | 10.00 | Fair | CLR | 61 | 61 | 100% | 29.96 | 1014.9 | |||||||
| 10 | 02:56 | W 3 | 10.00 | Fair | CLR | 61 | 61 | 100% | 29.95 | 1014.7 | |||||||
| 09 | 22:56 | SW 7 | 10.00 | Fair | CLR | 64 | 62.1 | 93% | 29.97 | 1015.3 | |||||||
| 09 | 19:45 | S 6 | 10.00 | Clear | SKC | 68 | 60.8 | 78% | 29.91 | 0.0 | |||||||
| 09 | 18:56 | SW 8 | 10.00 | Fair | CLR | 69.1 | 60.1 | 73% | 29.9 | 1013.0 | |||||||
| 09 | 18:45 | SW 8 | 10.00 | Clear | SKC | 69.8 | 60.8 | 73% | 29.9 | 0.0 | |||||||
| 09 | 17:45 | SW 7 | 10.00 | Clear | SKC | 69.8 | 60.8 | 73% | 29.9 | 0.0 | |||||||
| 09 | 16:45 | SW 12 | 10.00 | Clear | SKC | 69.8 | 59 | 69% | 29.88 | 0.0 | |||||||
| 09 | 15:45 | S 6 | 10.00 | Partly Cloudy | SCT027 | 69.8 | 59 | 69% | 29.9 | 0.0 | |||||||
| 09 | 10:56 | SW 7 | 10.00 | Overcast | OVC009 | 63 | 61 | 93% | 29.94 | 1014.4 | |||||||
| 09 | 07:56 | Calm | 10.00 | Mostly Cloudy | BKN016 | 60.1 | 60.1 | 60.1 | 55.9 | 100% | 29.91 | 1013.3 | |||||
| 09 | 06:56 | Calm | 10.00 | Overcast | OVC036 | 59 | 59 | 100% | 29.9 | 1012.9 | |||||||
| 09 | 05:56 | Calm | 10.00 | Overcast | BKN028 OVC044 | 59 | 59 | 100% | 29.91 | 1013.5 | |||||||
| 08 | 20:56 | S 6 | 10.00 | Fair | CLR | 64 | 55 | 73% | 29.96 | 1015.2 | |||||||
| 08 | 19:56 | S 3 | 10.00 | Fair | CLR | 66 | 55 | 71.1 | 66 | 68% | 29.96 | 1015.4 | |||||
| 08 | 18:56 | S 6 | 10.00 | Fair | CLR | 68 | 53.1 | 59% | 29.95 | 1014.9 | |||||||
| 08 | 17:56 | S 7 | 10.00 | Partly Cloudy | SCT045 | 69.1 | 52 | 55% | 29.96 | 1015.3 | |||||||
| 08 | 16:56 | E 5 | 10.00 | Fair | CLR | 69.1 | 52 | 55% | 29.96 | 1015.0 | |||||||
| 08 | 15:56 | Calm | 10.00 | Fair | CLR | 70 | 51.1 | 51% | 29.97 | 1015.4 | |||||||
| 08 | 14:56 | SE 6 | 10.00 | A Few Clouds | FEW044 | 70 | 50 | 49% | 30 | 1016.3 | |||||||
| 08 | 13:56 | Vrbl 7 | 10.00 | Fair | CLR | 69.1 | 51.1 | 69.1 | 54 | 53% | 30.01 | 1016.9 | |||||
| 08 | 12:56 | Calm | 10.00 | A Few Clouds | FEW050 | 66 | 51.1 | 59% | 30.04 | 1017.8 | |||||||
| 08 | 11:56 | SE 7 | 10.00 | Partly Cloudy | SCT050 | 64.9 | 52 | 63% | 30.07 | 1018.9 | |||||||
| 08 | 10:56 | Vrbl 6 | 10.00 | Fair | CLR | 63 | 50 | 63% | 30.08 | 1019.2 | |||||||
| 08 | 09:56 | Calm | 10.00 | Fair | CLR | 60.1 | 51.1 | 72% | 30.08 | 1019.2 | |||||||
| 08 | 08:56 | Vrbl 3 | 10.00 | Fair | CLR | 57.9 | 52 | 81% | 30.07 | 1019.1 | |||||||
| 08 | 07:56 | Calm | 10.00 | Fair | CLR | 54 | 53.1 | 55.9 | 48.9 | 97% | 30.05 | 1018.2 | |||||
| 08 | 06:56 | Calm | 10.00 | Fair | CLR | 50 | 50 | 100% | 30.02 | 1017.3 | |||||||
| 08 | 05:56 | Calm | 10.00 | Fair | CLR | 50 | 50 | 100% | 29.99 | 1016.3 | |||||||
| 08 | 04:56 | Calm | 10.00 | Fair | CLR | 52 | 52 | 100% | 29.98 | 1015.9 | |||||||
| 08 | 03:56 | W 3 | 10.00 | Fair | CLR | 53.1 | 53.1 | 100% | 29.98 | 1015.8 | |||||||
| 08 | 01:56 | Calm | 10.00 | Fair | CLR | 55 | 55 | 64.9 | 55 | 100% | 29.99 | 1016.0 | |||||
| 08 | 00:56 | W 3 | 10.00 | Fair | CLR | 57 | 55.9 | 96% | 29.99 | 1016.1 | |||||||
| 07 | 23:56 | Calm | 10.00 | Fair | CLR | 57.9 | 55 | 90% | 29.98 | 1015.7 | |||||||
| 07 | 22:56 | W 5 | 10.00 | Fair | CLR | 59 | 55 | 87% | 29.98 | 1015.9 | |||||||
| 07 | 21:56 | W 5 | 10.00 | Fair | CLR | 61 | 55 | 81% | 29.97 | 1015.2 | |||||||
| 07 | 20:56 | W 5 | 10.00 | Fair | CLR | 62.1 | 55 | 78% | 29.95 | 1014.6 | |||||||
| 07 | 19:56 | Vrbl 6 | 10.00 | A Few Clouds | FEW031 | 64.9 | 54 | 72 | 64.9 | 68% | 29.93 | 1014.0 | |||||
| 07 | 18:56 | W 10 G 16 | 10.00 | Mostly Cloudy | BKN029 | 68 | 55.9 | 65% | 29.91 | 1013.3 | |||||||
| 07 | 17:56 | W 16 G 23 | 10.00 | Partly Cloudy | SCT029 | 68 | 55.9 | 65% | 29.9 | 1012.8 | |||||||
| 07 | 16:56 | W 20 G 24 | 10.00 | Overcast | BKN027 OVC033 | 69.1 | 57.9 | 68% | 29.89 | 1012.5 | |||||||
| 07 | 15:56 | W 13 G 20 | 10.00 | Mostly Cloudy | SCT025 BKN037 | 72 | 60.1 | 66% | 29.88 | 1012.1 | |||||||
| 07 | 14:56 | W 16 G 21 | 10.00 | Overcast | SCT021 BKN029 OVC037 | 69.1 | 61 | 76% | 29.9 | 1012.8 | |||||||
| 07 | 13:56 | W 17 G 22 | 10.00 | Mostly Cloudy | BKN014 | 70 | 62.1 | 72 | 63 | 76% | 29.89 | 1012.6 | |||||
| 07 | 12:56 | W 8 G 16 | 10.00 | Mostly Cloudy | BKN014 | 69.1 | 64 | 84% | 29.89 | 1012.5 | |||||||
| 07 | 11:56 | W 6 | 10.00 | Mostly Cloudy | BKN009 | 69.1 | 64.9 | 87% | 29.88 | 1012.2 | |||||||
| 07 | 10:56 | Calm | 10.00 | Mostly Cloudy | BKN006 | 64.9 | 64.9 | 100% | 29.89 | 1012.5 | |||||||
| 07 | 09:56 | Calm | 6.00 | Light Rain Fog/Mist | BKN006 | 64 | 64 | 100% | 29.89 | 1012.4 | |||||||
| 07 | 08:56 | E 5 | 2.00 | Light Rain Fog/Mist | OVC006 | 63 | 63 | 100% | 29.86 | 1011.6 | |||||||
| Date | Time (edt) | Wind (mph) | Vis. (mi.) | Weather | Sky Cond. | Air | Dwpt | Max. | Min. | Relative Humidity | Wind Chill (°F) | Heat Index (°F) | altimeter (in) | sea level (mb) | 1 hr | 3 hr | 6 hr |
| 6 hour | |||||||||||||||||
| Temperature (ºF) | Pressure | Precipitation (in) | |||||||||||||||